Time;durP1;ratioP1;P1;durP2;ratioP2;P2;SDS_P1;SDS_P2;PMS_P1;PMS_P2;Temp;Humidity;BMP_temperature;BMP_pressure;BME280_temperature;BME280_humidity;BME280_pressure;Samples;Min_cycle;Max_cycle;Signal;HPM_P1;HPM_P2
2022/03/06 00:03:56;;;;;;;40.93;20.13;;;;;;;-0.38;67.43;101443.37;3604620;78;99681;-91
2022/03/06 00:08:57;;;;;;;49.73;20.13;;;;;;;-0.37;67.97;101442.28;3599275;80;99045;-91
2022/03/06 00:13:58;;;;;;;39.87;18.20;;;;;;;-0.33;67.20;101443.87;3586905;79;99051;-91
2022/03/06 00:18:59;;;;;;;36.03;19.90;;;;;;;-0.33;68.58;101445.22;3610908;80;34897;-90
2022/03/06 00:24:00;;;;;;;38.58;17.62;;;;;;;-0.32;68.67;101436.27;3594854;80;98956;-91
2022/03/06 00:29:03;;;;;;;45.52;18.48;;;;;;;-0.32;68.61;101441.69;3580251;80;99044;-90
2022/03/06 00:34:03;;;;;;;41.87;19.30;;;;;;;-0.36;68.34;101432.50;3583727;80;99400;-90
2022/03/06 00:39:05;;;;;;;55.70;23.03;;;;;;;-0.31;68.96;101430.34;3594822;79;99052;-89
2022/03/06 00:44:06;;;;;;;23.13;12.80;;;;;;;-0.29;68.89;101430.06;3586615;79;98712;-90
2022/03/06 00:49:07;;;;;;;20.30;10.93;;;;;;;-0.27;65.42;101424.07;3588624;80;32393;-90
2022/03/06 00:54:07;;;;;;;39.00;17.90;;;;;;;-0.27;64.28;101429.22;3581983;80;99162;-90
2022/03/06 00:59:08;;;;;;;41.50;18.10;;;;;;;-0.27;64.95;101426.52;3603263;77;98984;-90
2022/03/06 01:04:09;;;;;;;38.00;18.32;;;;;;;-0.27;65.19;101431.92;3601946;80;99788;-90
2022/03/06 01:09:12;;;;;;;45.33;19.43;;;;;;;-0.25;65.71;101427.86;3604654;79;99201;-91
2022/03/06 01:14:13;;;;;;;36.60;16.80;;;;;;;-0.29;65.81;101424.66;3605246;79;99386;-90
2022/03/06 01:19:14;;;;;;;40.60;18.90;;;;;;;-0.29;67.11;101430.06;3613077;80;32424;-90
2022/03/06 01:24:15;;;;;;;43.13;18.60;;;;;;;-0.32;67.17;101423.31;3600991;77;99059;-90
2022/03/06 01:29:18;;;;;;;34.90;17.00;;;;;;;-0.33;67.26;101429.78;3610603;80;99267;-90
2022/03/06 01:34:19;;;;;;;26.63;13.77;;;;;;;-0.36;67.08;101414.92;3490828;82;99298;-90
2022/03/06 01:39:20;;;;;;;22.90;13.57;;;;;;;-0.40;66.27;101427.16;3499384;81;99116;-90
2022/03/06 01:44:21;;;;;;;25.68;13.50;;;;;;;-0.49;63.60;101426.13;3495658;82;99302;-90
2022/03/06 01:49:22;;;;;;;24.17;12.90;;;;;;;-0.50;63.73;101419.89;3506046;82;32946;-90
2022/03/06 01:54:23;;;;;;;21.47;12.13;;;;;;;-0.50;64.97;101421.81;3508339;81;99621;-90
2022/03/06 01:59:24;;;;;;;19.00;10.07;;;;;;;-0.49;64.68;101427.47;3505045;81;99306;-90
2022/03/06 02:04:25;;;;;;;19.27;11.40;;;;;;;-0.54;64.69;101425.62;3499693;82;99218;-89
2022/03/06 02:09:28;;;;;;;26.33;12.25;;;;;;;-0.52;64.11;101414.50;3507687;81;99604;-89
2022/03/06 02:14:28;;;;;;;24.10;11.40;;;;;;;-0.50;63.53;101415.05;3490584;82;98987;-90
2022/03/06 02:19:29;;;;;;;21.87;10.90;;;;;;;-0.49;64.36;101415.30;3513479;81;26719;-90
2022/03/06 02:24:30;;;;;;;26.77;11.77;;;;;;;-0.57;65.15;101419.41;3496605;81;99167;-91
2022/03/06 02:29:31;;;;;;;23.80;12.53;;;;;;;-0.59;65.78;101406.72;3496774;82;99358;-90
2022/03/06 02:34:32;;;;;;;26.60;13.10;;;;;;;-0.58;65.54;101415.09;3499608;82;99422;-90
2022/03/06 02:39:34;;;;;;;28.07;14.87;;;;;;;-0.56;65.94;101411.55;3504458;81;99093;-91
2022/03/06 02:44:34;;;;;;;27.17;14.90;;;;;;;-0.52;66.37;101406.39;3500336;82;99482;-90
2022/03/06 02:49:35;;;;;;;29.50;14.40;;;;;;;-0.57;66.21;101399.66;3497172;82;25877;-90
2022/03/06 02:54:36;;;;;;;29.93;15.67;;;;;;;-0.60;66.56;101401.02;3494782;82;99351;-90
2022/03/06 02:59:39;;;;;;;33.73;17.97;;;;;;;-0.57;66.39;101400.48;3498193;81;98979;-90
2022/03/06 03:04:39;;;;;;;28.33;16.47;;;;;;;-0.53;66.00;101384.50;3496354;81;98925;-90
2022/03/06 03:09:41;;;;;;;29.77;16.30;;;;;;;-0.50;66.53;101386.66;3513448;81;99022;-84
2022/03/06 03:14:42;;;;;;;29.00;15.90;;;;;;;-0.51;66.97;101387.19;3484435;82;99476;-90
2022/03/06 03:19:43;;;;;;;26.43;14.80;;;;;;;-0.52;67.52;101388.28;3501656;82;99045;-90
2022/03/06 03:24:43;;;;;;;17.43;10.63;;;;;;;-0.55;67.48;101382.63;3508196;82;98611;-90
2022/03/06 03:29:44;;;;;;;18.40;10.13;;;;;;;-0.52;65.86;101394.22;3503350;82;98929;-90
2022/03/06 03:34:45;;;;;;;16.37;9.63;;;;;;;-0.49;64.90;101390.97;3506567;82;99081;-91
2022/03/06 03:39:46;;;;;;;36.20;19.23;;;;;;;-0.50;63.21;101388.80;3496198;81;98753;-90
2022/03/06 03:44:47;;;;;;;43.67;21.77;;;;;;;-0.49;63.25;101400.44;3464878;82;99052;-90
2022/03/06 03:49:48;;;;;;;48.80;23.00;;;;;;;-0.50;63.42;101392.06;3499933;81;100433;-90
2022/03/06 03:54:49;;;;;;;39.27;18.80;;;;;;;-0.48;64.51;101396.11;3517387;81;98797;-90
2022/03/06 03:59:50;;;;;;;27.00;15.07;;;;;;;-0.45;64.72;101400.94;3500965;82;99220;-91
2022/03/06 04:04:51;;;;;;;26.40;13.43;;;;;;;-0.40;64.29;101392.00;3511431;82;99373;-90
2022/03/06 04:09:52;;;;;;;20.07;10.83;;;;;;;-0.38;64.15;101393.88;3491540;82;99062;-90
2022/03/06 04:14:53;;;;;;;22.60;13.20;;;;;;;-0.39;62.85;101389.56;3512063;81;99000;-91
2022/03/06 04:19:54;;;;;;;24.50;12.83;;;;;;;-0.41;63.47;101395.23;3517923;81;98950;-90
2022/03/06 04:24:55;;;;;;;22.77;13.67;;;;;;;-0.43;63.92;101389.31;3475686;83;31891;-90
2022/03/06 04:29:56;;;;;;;24.10;14.23;;;;;;;-0.47;65.71;101402.56;3463561;82;99098;-89
2022/03/06 04:34:56;;;;;;;23.80;13.27;;;;;;;-0.44;66.20;101399.05;3538908;81;99055;-90
2022/03/06 04:39:57;;;;;;;22.37;12.37;;;;;;;-0.40;66.27;101397.41;3539487;81;99324;-91
2022/03/06 04:44:58;;;;;;;22.17;12.20;;;;;;;-0.38;66.20;101395.22;3519846;81;98955;-91
2022/03/06 04:50:00;;;;;;;21.87;12.83;;;;;;;-0.36;66.14;101396.00;3525372;81;99115;-91
2022/03/06 04:55:01;;;;;;;24.03;14.50;;;;;;;-0.36;66.45;101388.45;3535046;81;31698;-90
2022/03/06 05:00:06;;;;;;;28.35;15.40;;;;;;;-0.34;66.73;101393.02;3512376;82;99016;-90
2022/03/06 05:05:07;;;;;;;22.83;13.60;;;;;;;-0.34;66.73;101393.02;3518653;81;99561;-91
2022/03/06 05:10:09;;;;;;;22.77;13.53;;;;;;;-0.42;68.00;101401.74;3513995;82;99100;-91
2022/03/06 05:15:13;;;;;;;23.03;13.07;;;;;;;-0.45;67.61;101396.88;3523680;81;99342;-90
2022/03/06 05:20:14;;;;;;;24.67;14.13;;;;;;;-0.44;67.80;101403.90;3505644;82;99113;-92
2022/03/06 05:25:15;;;;;;;23.17;14.20;;;;;;;-0.42;67.64;101393.06;3509013;82;31628;-92
2022/03/06 05:30:16;;;;;;;26.13;14.13;;;;;;;-0.41;67.33;101395.23;3529868;81;99121;-91
2022/03/06 05:35:17;;;;;;;24.37;14.37;;;;;;;-0.38;67.78;101401.98;3517496;81;98857;-91
2022/03/06 05:40:18;;;;;;;23.20;15.20;;;;;;;-0.40;68.56;101391.44;3497830;81;99094;-91
2022/03/06 05:45:19;;;;;;;24.13;14.70;;;;;;;-0.43;68.84;101396.61;3509737;82;98989;-91
2022/03/06 05:50:19;;;;;;;28.45;14.73;;;;;;;-0.44;69.44;101391.73;3502324;81;99313;-91
2022/03/06 05:55:20;;;;;;;22.90;14.73;;;;;;;-0.48;68.83;101396.64;3511864;82;31733;-91
2022/03/06 06:00:22;;;;;;;28.38;15.93;;;;;;;-0.48;68.98;101390.70;3511748;82;99078;-91
2022/03/06 06:05:23;;;;;;;25.60;14.67;;;;;;;-0.43;69.13;101387.14;3498980;81;99256;-92
2022/03/06 06:10:24;;;;;;;23.18;13.08;;;;;;;-0.45;69.46;101386.63;3489496;81;99304;-91
2022/03/06 06:15:25;;;;;;;53.93;24.13;;;;;;;-0.43;69.58;101383.91;3502984;82;99480;-91
2022/03/06 06:20:26;;;;;;;62.30;27.93;;;;;;;-0.45;69.85;101389.33;3492316;81;99454;-92
2022/03/06 06:25:26;;;;;;;38.10;18.20;;;;;;;-0.38;69.72;101391.98;3517544;81;34838;-91
2022/03/06 06:30:27;;;;;;;31.57;16.93;;;;;;;-0.32;69.60;101391.39;3507701;81;99336;-91
2022/03/06 06:35:28;;;;;;;24.40;13.77;;;;;;;-0.26;69.23;101383.76;3516605;81;99259;-91
2022/03/06 06:40:30;;;;;;;24.33;13.53;;;;;;;-0.20;69.21;101392.09;3503856;81;99159;-91
2022/03/06 06:45:31;;;;;;;23.80;12.53;;;;;;;-0.14;68.97;101388.81;3504131;82;99439;-90
2022/03/06 06:50:33;;;;;;;24.52;13.35;;;;;;;-0.05;68.55;101385.21;3500989;81;99024;-90
2022/03/06 06:55:35;;;;;;;21.57;11.80;;;;;;;0.02;68.84;101382.98;3522301;81;35268;-90
2022/03/06 07:00:36;;;;;;;20.97;11.63;;;;;;;0.08;67.89;101381.05;3492628;81;98940;-91
2022/03/06 07:05:36;;;;;;;17.50;11.27;;;;;;;0.16;67.32;101386.66;3502023;82;99194;-91
2022/03/06 07:10:38;;;;;;;16.80;9.67;;;;;;;0.25;65.64;101386.31;3501227;82;99211;-90
2022/03/06 07:15:39;;;;;;;18.93;10.17;;;;;;;0.36;64.64;101397.30;3494881;82;98726;-91
2022/03/06 07:20:40;;;;;;;21.38;11.18;;;;;;;0.46;63.70;101394.49;3500650;82;99192;-92
2022/03/06 07:25:41;;;;;;;19.37;11.15;;;;;;;0.55;62.76;101398.17;3527989;82;33040;-95
2022/03/06 07:30:42;;;;;;;16.45;10.05;;;;;;;0.67;64.41;101401.28;3501902;81;98983;-94
2022/03/06 07:35:43;;;;;;;16.80;9.47;;;;;;;0.78;62.40;101406.84;3498314;82;99026;-93
2022/03/06 07:40:44;;;;;;;15.70;9.50;;;;;;;0.84;61.26;101399.48;3506008;81;98937;-92
2022/03/06 07:45:45;;;;;;;16.37;11.00;;;;;;;0.98;61.16;101394.95;3508033;82;98647;-93
2022/03/06 07:50:46;;;;;;;16.53;10.40;;;;;;;1.09;62.25;101401.33;3491791;82;99023;-95
2022/03/06 07:55:46;;;;;;;16.73;10.37;;;;;;;1.24;62.73;101405.20;3502722;81;32456;-94
2022/03/06 08:00:47;;;;;;;19.30;10.77;;;;;;;1.36;61.88;101411.00;3498703;82;98592;-91
2022/03/06 08:05:48;;;;;;;14.97;9.83;;;;;;;1.48;61.95;101410.58;3502352;82;98713;-90
2022/03/06 08:10:49;;;;;;;16.75;10.10;;;;;;;1.57;58.57;101412.87;3499995;82;99039;-92
2022/03/06 08:15:50;;;;;;;16.43;9.97;;;;;;;1.64;60.26;101412.77;3509824;82;99112;-89
2022/03/06 08:20:51;;;;;;;16.80;10.63;;;;;;;1.70;58.94;101412.16;3513472;82;98948;-89
2022/03/06 08:25:52;;;;;;;15.40;10.37;;;;;;;1.90;58.73;101410.47;3522995;82;26368;-90
2022/03/06 08:30:52;;;;;;;15.63;9.77;;;;;;;1.99;58.26;101410.06;3503286;82;98899;-88
2022/03/06 08:35:53;;;;;;;16.97;9.70;;;;;;;2.10;59.41;101411.50;3500055;81;98902;-87
2022/03/06 08:40:54;;;;;;;22.42;12.63;;;;;;;2.26;58.70;101419.11;3506103;82;99124;-88
2022/03/06 08:45:55;;;;;;;18.43;10.40;;;;;;;2.33;58.42;101418.16;3508920;82;99065;-88
2022/03/06 08:50:57;;;;;;;24.02;12.15;;;;;;;2.34;56.18;101415.70;3497359;82;98889;-87
2022/03/06 08:55:58;;;;;;;17.20;9.90;;;;;;;2.32;56.17;101419.81;3462157;82;98959;-85
2022/03/06 09:00:59;;;;;;;18.70;9.73;;;;;;;2.35;56.25;101407.01;3516585;82;98763;-88
2022/03/06 09:06:00;;;;;;;17.07;10.47;;;;;;;2.39;56.54;101409.36;3512001;81;98809;-88
2022/03/06 09:11:01;;;;;;;17.20;11.00;;;;;;;2.41;55.61;101413.96;3447211;84;99226;-87
2022/03/06 09:16:04;;;;;;;19.27;11.13;;;;;;;2.48;54.75;101420.63;3510469;81;99272;-88
2022/03/06 09:21:05;;;;;;;18.50;11.03;;;;;;;2.48;55.36;101421.98;3497367;82;99236;-88
2022/03/06 09:26:07;;;;;;;20.80;11.53;;;;;;;2.59;54.24;101417.16;3501092;82;99157;-88
2022/03/06 09:31:08;;;;;;;18.02;10.88;;;;;;;2.71;55.52;101418.28;3486211;82;99102;-87
2022/03/06 09:36:09;;;;;;;19.83;11.40;;;;;;;2.86;54.46;101412.56;3507717;81;99087;-86
2022/03/06 09:41:15;;;;;;;18.33;10.03;;;;;;;2.98;54.59;101408.77;3495888;82;99026;-88
2022/03/06 09:46:18;;;;;;;19.00;10.38;;;;;;;3.08;54.52;101404.49;3502072;82;98894;-87
2022/03/06 09:51:20;;;;;;;18.50;10.70;;;;;;;3.18;54.42;101398.81;3503400;82;99279;-89
2022/03/06 09:56:21;;;;;;;18.03;10.50;;;;;;;3.34;54.24;101403.40;3509682;82;99269;-88
2022/03/06 10:01:23;;;;;;;17.63;10.30;;;;;;;3.44;52.98;101405.91;3515530;81;98871;-88
2022/03/06 10:06:23;;;;;;;16.73;10.77;;;;;;;3.40;53.47;101413.88;3503067;81;98989;-86
2022/03/06 10:11:27;;;;;;;15.93;9.60;;;;;;;3.50;52.05;101402.73;3514863;81;98892;-89
2022/03/06 10:16:29;;;;;;;15.07;9.87;;;;;;;3.61;53.22;101391.09;3465019;83;99035;-88
2022/03/06 10:21:36;;;;;;;15.07;9.13;;;;;;;3.71;52.47;101390.28;3451431;83;99040;-88
2022/03/06 10:26:37;;;;;;;18.07;9.23;;;;;;;3.83;52.54;101391.89;3467184;83;98976;-88
2022/03/06 10:31:54;;;;;;;15.87;8.20;;;;;;;3.90;51.69;101387.39;3460204;83;98389;-87
2022/03/06 10:36:59;;;;;;;13.28;7.22;;;;;;;3.89;51.92;101392.59;3471186;83;97951;-89
2022/03/06 10:41:57;;;;;;;13.65;7.78;;;;;;;4.12;51.45;101391.47;3467788;82;98968;-90
2022/03/06 10:47:02;;;;;;;15.67;7.60;;;;;;;4.25;52.30;101381.86;3457107;83;99001;-89
2022/03/06 10:52:16;;;;;;;15.80;7.33;;;;;;;4.38;51.71;101382.35;3466063;83;100477;-88
2022/03/06 10:57:19;;;;;;;16.07;9.20;;;;;;;4.40;50.85;101376.56;3471993;82;99228;-89
2022/03/06 11:02:24;;;;;;;16.30;8.38;;;;;;;4.53;51.99;101383.29;3481958;81;98919;-89
2022/03/06 11:07:29;;;;;;;13.93;8.37;;;;;;;4.60;52.53;101378.22;3474168;84;25934;-91
2022/03/06 11:12:32;;;;;;;34.55;16.70;;;;;;;4.63;51.77;101376.78;3445854;82;98535;-88
2022/03/06 11:17:34;;;;;;;24.00;11.88;;;;;;;4.72;52.21;101377.60;3425612;83;99266;-90
2022/03/06 11:22:46;;;;;;;25.27;11.90;;;;;;;4.74;51.07;101372.08;3491303;81;99210;-89
2022/03/06 11:28:26;;;;;;;16.93;8.80;;;;;;;4.78;52.78;101369.52;3483764;83;99145;-87
2022/03/06 11:33:26;;;;;;;13.83;7.37;;;;;;;4.81;51.23;101359.36;3399586;83;98934;-88
2022/03/06 11:38:40;;;;;;;16.30;8.20;;;;;;;4.77;50.32;101355.09;3492155;83;99050;-86
2022/03/06 11:43:48;;;;;;;15.17;8.03;;;;;;;4.77;49.98;101346.92;3472855;83;98558;-87
2022/03/06 11:48:57;;;;;;;14.43;8.13;;;;;;;4.78;50.66;101339.52;3490638;83;98463;-87
2022/03/06 11:54:09;;;;;;;14.20;7.25;;;;;;;4.71;50.20;101333.19;3473845;81;98908;-87
2022/03/06 11:59:25;;;;;;;11.87;7.17;;;;;;;4.51;49.93;101335.11;3494843;83;99154;-88
2022/03/06 12:04:31;;;;;;;12.80;7.15;;;;;;;4.58;51.50;101327.84;3481901;81;99151;-87
2022/03/06 12:09:42;;;;;;;12.28;5.92;;;;;;;4.59;51.13;101319.91;3465552;83;98687;-88
2022/03/06 12:14:51;;;;;;;14.27;6.60;;;;;;;4.58;49.93;101320.45;3498127;83;99036;-88
2022/03/06 12:19:57;;;;;;;10.63;6.00;;;;;;;4.58;50.78;101311.48;3483773;83;98772;-87
2022/03/06 12:25:14;;;;;;;13.27;6.80;;;;;;;4.62;49.99;101310.53;3497810;81;98634;-87
2022/03/06 12:30:38;;;;;;;12.90;7.40;;;;;;;4.54;50.74;101303.11;3482217;83;98868;-88
2022/03/06 12:35:39;;;;;;;14.67;7.10;;;;;;;4.55;50.08;101299.29;3506355;82;98696;-88
2022/03/06 12:40:42;;;;;;;14.57;7.17;;;;;;;4.66;51.15;101304.70;3455824;82;98677;-91
2022/03/06 12:45:44;;;;;;;12.43;7.42;;;;;;;4.83;51.06;101293.83;3488710;82;98713;-89
2022/03/06 12:50:45;;;;;;;12.30;7.10;;;;;;;4.77;50.71;101290.20;3497966;82;98714;-91
2022/03/06 12:55:57;;;;;;;27.07;12.70;;;;;;;4.90;51.60;101281.07;3499459;82;33237;-89
2022/03/06 13:01:04;;;;;;;16.67;8.23;;;;;;;4.90;50.54;101280.52;3492594;82;98898;-89
2022/03/06 13:06:14;;;;;;;12.73;6.83;;;;;;;4.96;52.10;101277.09;3506818;82;98915;-90
2022/03/06 13:11:15;;;;;;;13.07;7.57;;;;;;;4.99;51.31;101287.35;3497350;82;98739;-90
2022/03/06 13:16:24;;;;;;;13.20;7.27;;;;;;;4.90;50.79;101272.88;3505444;82;98722;-92
2022/03/06 13:21:26;;;;;;;12.78;6.97;;;;;;;4.79;49.91;101285.22;3478872;82;99240;-90
2022/03/06 13:26:29;;;;;;;10.97;6.17;;;;;;;4.65;50.83;101268.98;3493531;82;98750;-90
2022/03/06 13:31:43;;;;;;;12.82;7.42;;;;;;;4.62;49.85;101268.27;3497368;82;98763;-89
2022/03/06 13:36:45;;;;;;;16.03;9.03;;;;;;;4.79;50.46;101270.22;3522709;82;98435;-90
2022/03/06 13:41:54;;;;;;;11.57;6.30;;;;;;;4.83;51.57;101263.84;3510531;82;98742;-89
2022/03/06 13:46:55;;;;;;;12.53;6.30;;;;;;;4.80;50.95;101266.40;3505314;82;98666;-91
2022/03/06 13:52:08;;;;;;;15.47;6.97;;;;;;;4.77;50.15;101262.92;3513397;82;98803;-91
2022/03/06 13:57:12;;;;;;;13.60;7.33;;;;;;;4.52;50.63;101268.56;3511592;82;99193;-87
2022/03/06 14:02:12;;;;;;;10.57;5.93;;;;;;;4.41;50.44;101265.88;3581172;80;98609;-87
2022/03/06 14:07:13;;;;;;;11.10;6.20;;;;;;;4.45;50.32;101266.87;3585925;79;33576;-87
2022/03/06 14:12:20;;;;;;;13.93;7.00;;;;;;;4.25;50.33;101267.42;3573079;81;98609;-87
2022/03/06 14:17:23;;;;;;;12.67;6.40;;;;;;;4.38;52.41;101276.61;3581390;81;98757;-87
2022/03/06 14:22:24;;;;;;;10.37;6.10;;;;;;;4.42;51.61;101268.06;3501670;82;98876;-87
2022/03/06 14:27:25;;;;;;;10.30;5.37;;;;;;;4.25;51.00;101265.27;3513162;82;99126;-87
2022/03/06 14:32:26;;;;;;;12.90;6.80;;;;;;;4.23;51.81;101261.49;3508694;82;98690;-87
2022/03/06 14:37:27;;;;;;;20.37;10.23;;;;;;;4.28;52.67;101261.36;3518163;82;33258;-88
2022/03/06 14:42:27;;;;;;;16.57;9.50;;;;;;;4.28;52.02;101265.99;3512000;82;98844;-88
2022/03/06 14:47:28;;;;;;;16.70;8.13;;;;;;;4.22;51.83;101261.80;3508017;82;98662;-86
2022/03/06 14:52:29;;;;;;;21.48;11.50;;;;;;;3.98;52.01;101260.80;3504286;82;99175;-87
2022/03/06 14:57:32;;;;;;;17.83;8.87;;;;;;;4.03;52.25;101262.58;3517215;82;98914;-86
2022/03/06 15:02:33;;;;;;;11.73;5.60;;;;;;;3.92;52.22;101262.06;3509171;82;98733;-87
2022/03/06 15:07:34;;;;;;;11.93;5.33;;;;;;;3.80;52.67;101265.11;3525259;82;33246;-85
2022/03/06 15:12:35;;;;;;;11.60;5.57;;;;;;;3.66;52.25;101261.09;3507372;82;98648;-86
2022/03/06 15:17:36;;;;;;;9.37;4.57;;;;;;;3.51;53.14;101271.57;3516644;82;98802;-86
2022/03/06 15:22:37;;;;;;;11.87;5.87;;;;;;;3.51;53.28;101266.94;3510510;82;98587;-86
2022/03/06 15:27:37;;;;;;;11.07;4.80;;;;;;;3.47;53.97;101258.33;3520143;82;99086;-85
2022/03/06 15:32:38;;;;;;;12.23;6.57;;;;;;;3.40;54.21;101254.70;3511386;82;98759;-86
2022/03/06 15:37:39;;;;;;;16.03;9.50;;;;;;;3.43;54.17;101257.33;3507852;82;31648;-86
2022/03/06 15:42:42;;;;;;;20.47;14.20;;;;;;;3.43;55.04;101257.33;3458714;84;98470;-86
2022/03/06 15:47:43;;;;;;;18.85;12.68;;;;;;;3.35;54.79;101248.56;3514246;82;98730;-85
2022/03/06 15:52:44;;;;;;;36.03;16.27;;;;;;;3.17;54.73;101254.42;3458249;84;99308;-86
2022/03/06 15:57:46;;;;;;;14.67;6.33;;;;;;;3.07;55.27;101254.65;3494862;81;99130;-85
2022/03/06 16:02:47;;;;;;;12.13;4.90;;;;;;;2.99;56.03;101247.77;3499188;82;99103;-86
2022/03/06 16:07:48;;;;;;;15.40;7.63;;;;;;;2.91;56.27;101255.31;3491805;83;31722;-85
2022/03/06 16:12:49;;;;;;;10.70;4.80;;;;;;;2.84;56.63;101264.45;3441440;84;98802;-85
2022/03/06 16:17:52;;;;;;;12.47;5.20;;;;;;;2.73;57.34;101258.98;3516546;82;98419;-85
2022/03/06 16:22:53;;;;;;;15.45;6.42;;;;;;;2.65;58.08;101259.69;3595541;80;98877;-85
2022/03/06 16:27:55;;;;;;;13.13;4.17;;;;;;;2.59;58.06;101259.55;3509187;82;99037;-85
2022/03/06 16:32:56;;;;;;;11.80;4.90;;;;;;;2.49;58.66;101256.49;3578297;80;99133;-85
2022/03/06 16:37:57;;;;;;;8.93;3.90;;;;;;;2.47;59.24;101258.69;3597795;80;31608;-86
2022/03/06 16:42:58;;;;;;;10.03;4.10;;;;;;;2.35;59.47;101258.40;3588771;80;98559;-85
2022/03/06 16:47:59;;;;;;;13.93;4.70;;;;;;;2.31;59.94;101268.28;3593081;80;98030;-87
2022/03/06 16:53:00;;;;;;;12.40;5.03;;;;;;;2.28;60.51;101263.98;3609221;80;99141;-87
2022/03/06 16:58:01;;;;;;;10.67;3.83;;;;;;;2.22;60.72;101271.97;3598182;80;98609;-86
2022/03/06 17:03:02;;;;;;;9.10;4.13;;;;;;;2.13;61.10;101273.23;3590324;80;98627;-86
2022/03/06 17:08:04;;;;;;;12.73;4.67;;;;;;;2.07;61.46;101273.65;3581066;80;99222;-85
2022/03/06 17:13:05;;;;;;;12.60;4.90;;;;;;;1.93;61.48;101287.20;3584363;80;98354;-87
2022/03/06 17:18:06;;;;;;;14.73;5.53;;;;;;;1.80;62.01;101282.52;3595642;80;98565;-87
2022/03/06 17:23:07;;;;;;;19.13;8.33;;;;;;;1.76;62.15;101285.57;3592036;80;98773;-87
2022/03/06 17:28:10;;;;;;;10.00;4.90;;;;;;;1.69;62.28;101296.58;3587119;80;98980;-87
2022/03/06 17:33:13;;;;;;;11.87;4.63;;;;;;;1.65;62.54;101294.98;3581861;80;98648;-87
2022/03/06 17:38:14;;;;;;;10.93;5.43;;;;;;;1.62;62.79;101296.14;3596470;80;98663;-86
2022/03/06 17:43:15;;;;;;;12.17;5.10;;;;;;;1.60;62.65;101288.86;3589647;80;99055;-87
2022/03/06 17:48:18;;;;;;;14.67;6.37;;;;;;;1.60;63.48;101287.50;3589637;80;98536;-87
2022/03/06 17:53:19;;;;;;;56.70;20.15;;;;;;;1.44;62.69;101289.66;3585788;80;98837;-86
2022/03/06 17:58:20;;;;;;;35.13;13.40;;;;;;;1.43;63.40;101294.81;3595764;80;98834;-87
2022/03/06 18:03:24;;;;;;;13.70;5.80;;;;;;;1.41;63.50;101296.20;3595129;80;99395;-87
2022/03/06 18:08:26;;;;;;;14.35;6.45;;;;;;;1.41;63.50;101296.20;3603115;80;98664;-86
2022/03/06 18:13:27;;;;;;;14.20;5.60;;;;;;;1.37;63.82;101300.06;3587043;80;98211;-86
2022/03/06 18:18:28;;;;;;;14.30;6.50;;;;;;;1.31;63.91;101303.95;3593589;80;98599;-85
2022/03/06 18:23:30;;;;;;;19.57;8.63;;;;;;;1.30;64.24;101300.17;3583426;80;98584;-84
2022/03/06 18:28:33;;;;;;;18.27;6.90;;;;;;;1.25;63.75;101302.42;3601695;80;98685;-86
2022/03/06 18:33:33;;;;;;;15.10;6.77;;;;;;;1.19;63.72;101300.07;3587592;80;99096;-87
2022/03/06 18:38:35;;;;;;;12.90;6.03;;;;;;;1.17;63.77;101303.09;3596066;80;98604;-85
2022/03/06 18:43:36;;;;;;;16.53;7.50;;;;;;;1.12;63.79;101305.06;3591097;80;98529;-86
2022/03/06 18:48:38;;;;;;;28.33;10.13;;;;;;;1.14;64.94;101303.67;3592197;80;98914;-86
2022/03/06 18:53:39;;;;;;;64.53;24.33;;;;;;;1.17;65.29;101304.98;3555029;80;98653;-87
2022/03/06 18:58:40;;;;;;;40.90;16.93;;;;;;;1.18;64.95;101299.28;3607881;80;99057;-88
2022/03/06 19:03:42;;;;;;;22.75;9.25;;;;;;;1.10;65.17;101303.99;3589476;80;98813;-88
2022/03/06 19:08:44;;;;;;;27.53;12.43;;;;;;;1.10;65.21;101305.34;3591540;80;98701;-85
2022/03/06 19:13:45;;;;;;;31.67;13.07;;;;;;;1.06;65.17;101296.75;3583877;80;98279;-86
2022/03/06 19:18:46;;;;;;;38.83;18.47;;;;;;;1.06;65.49;101301.63;3589514;80;98714;-88
2022/03/06 19:23:48;;;;;;;36.43;14.43;;;;;;;1.02;65.49;101302.48;3602562;80;98628;-87
2022/03/06 19:28:50;;;;;;;30.73;12.30;;;;;;;1.00;65.51;101299.27;3572268;80;98996;-87
2022/03/06 19:33:51;;;;;;;40.90;14.73;;;;;;;0.98;65.40;101298.20;3589599;80;98828;-86
2022/03/06 19:38:52;;;;;;;30.13;11.60;;;;;;;0.96;65.63;101311.79;3604547;80;98985;-87
2022/03/06 19:43:53;;;;;;;34.33;11.97;;;;;;;0.93;65.79;101307.76;3594068;80;98435;-83
2022/03/06 19:48:55;;;;;;;38.30;15.07;;;;;;;0.92;65.76;101305.33;3582691;80;99003;-84
2022/03/06 19:53:56;;;;;;;50.97;20.27;;;;;;;0.95;65.73;101297.45;3581402;80;98504;-87
2022/03/06 19:58:57;;;;;;;38.53;17.43;;;;;;;0.97;65.94;101302.02;3597355;80;98917;-85
2022/03/06 20:03:58;;;;;;;29.37;13.35;;;;;;;0.95;65.64;101301.52;3587527;80;98907;-84
2022/03/06 20:08:58;;;;;;;30.77;15.33;;;;;;;0.92;66.09;101307.51;3597824;80;98828;-87
2022/03/06 20:13:59;;;;;;;30.87;13.23;;;;;;;0.91;66.20;101313.21;3593803;80;98689;-85
2022/03/06 20:19:02;;;;;;;27.37;12.13;;;;;;;0.91;66.74;101305.08;3595855;80;98536;-86
2022/03/06 20:24:04;;;;;;;21.53;8.60;;;;;;;0.90;66.62;101302.13;3578562;80;98679;-84
2022/03/06 20:29:05;;;;;;;18.20;7.70;;;;;;;0.89;66.91;101297.80;3605394;80;99105;-84
2022/03/06 20:34:07;;;;;;;18.50;7.97;;;;;;;0.88;66.99;101315.16;3583434;80;99114;-84
2022/03/06 20:39:09;;;;;;;20.70;9.50;;;;;;;0.86;67.02;101312.73;3607317;80;98763;-84
2022/03/06 20:44:10;;;;;;;25.72;11.35;;;;;;;0.86;67.39;101318.70;3611951;80;98730;-84
2022/03/06 20:49:12;;;;;;;28.47;12.43;;;;;;;0.85;67.33;101313.02;3494651;83;31655;-83
2022/03/06 20:54:18;;;;;;;33.10;13.60;;;;;;;0.85;67.55;101311.13;3497962;81;98780;-83
2022/03/06 20:59:19;;;;;;;38.90;18.70;;;;;;;0.82;67.96;101320.39;3475624;83;98916;-83
2022/03/06 21:04:20;;;;;;;35.77;18.03;;;;;;;0.81;68.26;101322.82;3613618;80;98917;-83
2022/03/06 21:09:21;;;;;;;33.77;15.27;;;;;;;0.80;68.36;101318.50;3548290;81;98816;-83
2022/03/06 21:14:22;;;;;;;32.23;16.03;;;;;;;0.75;68.45;101323.98;3546700;81;99244;-85
2022/03/06 21:19:23;;;;;;;37.00;15.77;;;;;;;0.73;68.63;101328.91;3606814;80;31689;-83
2022/03/06 21:24:24;;;;;;;35.77;15.57;;;;;;;0.73;68.68;101326.98;3547693;81;99093;-84
2022/03/06 21:29:25;;;;;;;34.57;16.47;;;;;;;0.73;69.23;101337.81;3606246;80;99230;-84
2022/03/06 21:34:31;;;;;;;37.73;16.33;;;;;;;0.72;69.35;101334.85;3541058;81;98875;-85
2022/03/06 21:39:30;;;;;;;35.03;15.80;;;;;;;0.71;69.62;101335.16;3497596;82;99395;-85
2022/03/06 21:44:31;;;;;;;34.80;15.90;;;;;;;0.68;69.82;101331.67;3483179;82;98764;-85
2022/03/06 21:49:32;;;;;;;45.27;18.80;;;;;;;0.69;70.10;101332.73;3496297;82;31671;-84
2022/03/06 21:54:33;;;;;;;46.90;18.60;;;;;;;0.69;70.34;101325.97;3488826;82;98782;-84
2022/03/06 21:59:34;;;;;;;40.80;18.60;;;;;;;0.68;70.80;101328.96;3491489;82;99029;-84
2022/03/06 22:04:35;;;;;;;48.93;19.43;;;;;;;0.68;70.72;101319.48;3478203;82;98781;-84
2022/03/06 22:09:36;;;;;;;44.07;19.10;;;;;;;0.69;71.07;101308.36;3496058;82;99230;-84
2022/03/06 22:14:38;;;;;;;38.03;15.97;;;;;;;0.66;71.48;101310.84;3491106;82;98819;-84
2022/03/06 22:19:39;;;;;;;38.33;15.90;;;;;;;0.66;71.77;101314.91;3496615;82;31879;-84
2022/03/06 22:24:40;;;;;;;32.87;15.20;;;;;;;0.65;71.99;101315.45;3487157;82;98954;-84
2022/03/06 22:29:41;;;;;;;28.87;12.27;;;;;;;0.65;71.93;101318.16;3494267;82;98690;-84
2022/03/06 22:34:42;;;;;;;28.63;11.77;;;;;;;0.64;72.53;101322.50;3513667;81;99505;-83
2022/03/06 22:39:43;;;;;;;22.30;9.50;;;;;;;0.62;72.67;101311.16;3590050;80;99479;-83
2022/03/06 22:44:44;;;;;;;21.57;9.48;;;;;;;0.61;72.68;101311.70;3473547;82;99067;-84
2022/03/06 22:49:45;;;;;;;24.73;9.93;;;;;;;0.59;73.08;101318.50;3504135;82;99101;-86
2022/03/06 22:54:46;;;;;;;27.03;11.07;;;;;;;0.57;73.14;101312.04;3495482;82;98708;-87
2022/03/06 22:59:47;;;;;;;31.33;11.63;;;;;;;0.59;73.53;101312.55;3451567;84;98881;-86
2022/03/06 23:10:07;;;;;;;34.55;13.28;;;;;;;0.62;73.98;101306.53;3500850;82;98778;-87
2022/03/06 23:15:09;;;;;;;23.53;10.80;;;;;;;0.61;74.13;101307.63;3513693;82;98962;-88